Time;durP1;ratioP1;P1;durP2;ratioP2;P2;SDS_P1;SDS_P2;PMS_P1;PMS_P2;Temp;Humidity;BMP_temperature;BMP_pressure;BME280_temperature;BME280_humidity;BME280_pressure;Samples;Min_cycle;Max_cycle;Signal;HPM_P1;HPM_P2
2024/02/02 00:02:25;;;;;;;;;2.25;1.00;;;;;3.36;87.01;100759.21;112573;241;160114;-55
2024/02/02 00:04:59;;;;;;;;;2.00;2.00;;;;;3.33;86.96;100762.46;112683;243;40705;-55
2024/02/02 00:07:41;;;;;;;;;1.00;1.00;;;;;3.32;86.99;100767.39;112813;243;40333;-53
2024/02/02 00:10:23;;;;;;;;;4.00;3.00;;;;;3.32;87.09;100765.31;112827;243;39082;-55
2024/02/02 00:13:02;;;;;;;;;2.00;2.00;;;;;3.33;87.13;100772.51;112798;243;40410;-55
2024/02/02 00:15:38;;;;;;;;;1.00;1.00;;;;;3.35;87.10;100776.20;112855;243;39756;-56
2024/02/02 00:18:15;;;;;;;;;1.00;1.00;;;;;3.36;87.08;100775.61;112820;243;39308;-56
2024/02/02 00:20:54;;;;;;;;;1.00;0.33;;;;;3.39;87.07;100774.23;112499;241;161053;-56
2024/02/02 00:23:35;;;;;;;;;3.50;2.00;;;;;3.45;87.03;100776.23;112682;243;40063;-57
2024/02/02 00:26:19;;;;;;;;;2.00;2.00;;;;;3.47;86.95;100775.71;112638;243;160521;-53
2024/02/02 00:29:00;;;;;;;;;3.00;2.00;;;;;3.48;86.95;100775.91;112652;243;40105;-53
2024/02/02 00:31:37;;;;;;;;;2.00;1.00;;;;;3.46;86.94;100774.49;112920;243;40962;-56
2024/02/02 00:34:14;;;;;;;;;2.00;1.00;;;;;3.48;86.80;100769.02;112895;243;39282;-56
2024/02/02 00:36:57;;;;;;;;;3.00;2.00;;;;;3.47;86.62;100769.78;112921;243;39685;-53
2024/02/02 00:39:37;;;;;;;;;2.00;1.00;;;;;3.46;86.58;100775.23;112588;241;160076;-53
2024/02/02 00:42:16;;;;;;;;;2.00;1.00;;;;;3.43;86.51;100776.95;112891;243;39341;-56
2024/02/02 00:44:57;;;;;;;;;5.25;2.00;;;;;3.40;86.50;100791.61;112970;243;40381;-56
2024/02/02 00:47:37;;;;;;;;;1.50;1.00;;;;;3.39;86.29;100786.36;112896;243;39690;-53
2024/02/02 00:50:14;;;;;;;;;2.50;2.00;;;;;3.40;86.21;100788.20;112673;241;161089;-56
2024/02/02 00:52:55;;;;;;;;;1.00;1.00;;;;;3.42;86.00;100788.95;112629;243;39874;-56
2024/02/02 00:55:38;;;;;;;;;1.00;1.00;;;;;3.45;85.81;100793.67;112551;243;40957;-55
2024/02/02 00:58:22;;;;;;;;;2.00;1.00;;;;;3.49;85.66;100792.09;112837;243;40987;-55
2024/02/02 01:00:59;;;;;;;;;1.50;1.00;;;;;3.51;85.48;100795.27;112852;243;39464;-56
2024/02/02 01:03:37;;;;;;;;;1.00;1.00;;;;;3.53;85.32;100799.70;112460;241;160922;-56
2024/02/02 01:06:19;;;;;;;;;4.00;3.00;;;;;3.57;85.25;100806.34;112821;243;40486;-55
2024/02/02 01:09:01;;;;;;;;;2.00;1.50;;;;;3.56;85.21;100804.40;112840;243;39155;-55
2024/02/02 01:11:43;;;;;;;;;1.00;1.00;;;;;3.54;84.89;100802.45;112879;243;39336;-53
2024/02/02 01:14:22;;;;;;;;;2.00;2.00;;;;;3.52;84.93;100805.70;112713;241;160476;-52
2024/02/02 01:17:04;;;;;;;;;2.50;2.00;;;;;3.53;84.63;100807.05;112590;243;39670;-54
2024/02/02 01:19:42;;;;;;;;;3.25;2.00;;;;;3.51;84.60;100814.02;112848;242;39403;-54
2024/02/02 01:22:24;;;;;;;;;2.50;2.00;;;;;3.48;84.49;100821.52;112490;241;160110;-51
2024/02/02 01:25:03;;;;;;;;;2.00;1.00;;;;;3.46;84.42;100820.83;112863;242;39458;-51
2024/02/02 01:27:46;;;;;;;;;4.00;2.00;;;;;3.45;84.43;100821.83;112497;241;160352;-51
2024/02/02 01:30:23;;;;;;;;;1.00;0.67;;;;;3.42;84.33;100817.97;112856;242;39831;-52
2024/02/02 01:33:01;;;;;;;;;1.00;1.00;;;;;3.40;84.23;100826.54;112691;239;160229;-51
2024/02/02 01:35:43;;;;;;;;;1.00;1.00;;;;;3.39;84.20;100824.66;112837;243;40053;-54
2024/02/02 01:38:26;;;;;;;;;6.25;3.00;;;;;3.36;84.08;100824.36;112692;241;160386;-55
2024/02/02 01:41:06;;;;;;;;;1.00;1.00;;;;;3.34;84.08;100821.38;112598;242;40379;-56
2024/02/02 01:43:47;;;;;;;;;1.00;0.00;;;;;3.32;84.08;100827.45;112837;242;40102;-56
2024/02/02 01:46:27;;;;;;;;;1.00;1.00;;;;;3.30;84.22;100827.02;112652;239;160257;-51
2024/02/02 01:49:09;;;;;;;;;0.75;0.00;;;;;3.30;84.14;100828.44;112825;242;40261;-51
2024/02/02 01:51:53;;;;;;;;;1.00;0.00;;;;;3.31;84.26;100826.81;112643;242;161871;-55
2024/02/02 01:54:34;;;;;;;;;1.50;1.00;;;;;3.33;84.30;100832.34;112840;243;39196;-54
2024/02/02 01:57:15;;;;;;;;;1.00;1.00;;;;;3.36;84.27;100835.39;112672;240;161157;-53
2024/02/02 01:59:53;;;;;;;;;1.50;1.00;;;;;3.39;84.24;100840.52;112859;242;40913;-52
2024/02/02 02:02:37;;;;;;;;;1.00;1.00;;;;;3.43;84.17;100844.27;112794;239;160607;-55
2024/02/02 02:05:15;;;;;;;;;3.00;2.00;;;;;3.48;84.17;100848.58;112865;243;40117;-53
2024/02/02 02:07:57;;;;;;;;;3.00;2.00;;;;;3.51;83.99;100856.86;112871;242;41189;-53
2024/02/02 02:10:42;;;;;;;;;2.00;1.00;;;;;3.51;84.06;100856.84;112568;243;40648;-55
2024/02/02 02:13:18;;;;;;;;;1.00;1.00;;;;;3.51;84.11;100854.78;112877;242;40860;-55
2024/02/02 02:15:58;;;;;;;;;2.00;2.00;;;;;3.49;84.07;100853.35;112731;239;160241;-55
2024/02/02 02:18:35;;;;;;;;;1.00;1.00;;;;;3.46;84.13;100849.84;112544;243;38743;-55
2024/02/02 02:24:09;;;;;;;;;0.00;0.00;;;;;3.42;84.24;100859.40;110573;267;62841;-51
2024/02/02 02:26:54;;;;;;;;;1.00;1.00;;;;;3.38;84.38;100862.86;111528;247;183377;-55
2024/02/02 02:29:41;;;;;;;;;2.00;1.00;;;;;3.34;84.36;100865.65;111604;253;40800;-54
2024/02/02 02:32:20;;;;;;;;;2.00;1.00;;;;;3.31;84.49;100862.17;111616;251;159517;-51
2024/02/02 02:34:59;;;;;;;;;3.25;1.25;;;;;3.30;84.57;100858.55;111447;253;39282;-50
2024/02/02 02:37:35;;;;;;;;;1.00;0.67;;;;;3.29;84.48;100860.04;110976;253;620725;-53
2024/02/02 02:40:11;;;;;;;;;1.00;0.00;;;;;3.29;84.50;100856.46;112313;242;160345;-55
2024/02/02 02:42:50;;;;;;;;;1.00;1.00;;;;;3.29;84.65;100856.34;112477;245;40038;-54
2024/02/02 02:45:24;;;;;;;;;1.00;1.00;;;;;3.30;84.84;100864.20;112361;241;160246;-54
2024/02/02 02:48:03;;;;;;;;;2.00;1.00;;;;;3.31;84.90;100863.41;112507;245;39512;-55
2024/02/02 02:50:45;;;;;;;;;4.75;2.00;;;;;3.33;84.94;100861.45;112369;241;161138;-51
2024/02/02 02:53:26;;;;;;;;;1.00;1.00;;;;;3.35;84.79;100855.23;112476;245;39474;-51
2024/02/02 02:56:06;;;;;;;;;1.00;1.00;;;;;3.38;84.94;100856.23;112398;245;159787;-54
2024/02/02 02:58:42;;;;;;;;;2.00;1.00;;;;;3.39;84.94;100859.52;112507;245;39386;-55
2024/02/02 03:01:27;;;;;;;;;1.25;1.00;;;;;3.39;84.98;100861.13;112517;245;39461;-53
2024/02/02 03:04:06;;;;;;;;;2.00;1.00;;;;;3.39;85.05;100863.30;112275;241;159507;-53
2024/02/02 03:06:46;;;;;;;;;3.67;2.00;;;;;3.39;85.09;100868.09;112480;245;40125;-52
2024/02/02 03:09:28;;;;;;;;;2.00;1.00;;;;;3.38;84.98;100867.09;112264;241;160150;-52
2024/02/02 03:12:06;;;;;;;;;3.00;2.00;;;;;3.36;85.00;100868.02;112400;245;39493;-55
2024/02/02 03:14:41;;;;;;;;;4.00;3.00;;;;;3.33;84.98;100868.45;112317;241;160324;-55
2024/02/02 03:17:17;;;;;;;;;2.00;1.00;;;;;3.29;85.10;100870.70;112442;245;39182;-53
2024/02/02 03:19:56;;;;;;;;;1.00;1.00;;;;;3.26;85.07;100877.23;112429;245;41183;-53
2024/02/02 03:22:38;;;;;;;;;2.00;2.00;;;;;3.24;85.18;100879.56;112440;245;39258;-56
2024/02/02 03:25:14;;;;;;;;;1.00;1.00;;;;;3.23;85.28;100883.56;112477;245;40983;-56
2024/02/02 03:27:52;;;;;;;;;3.25;2.00;;;;;3.22;85.30;100887.84;112346;245;160345;-56
2024/02/02 03:30:31;;;;;;;;;1.00;1.00;;;;;3.25;85.38;100890.15;112459;245;40413;-56
2024/02/02 03:33:09;;;;;;;;;2.00;1.00;;;;;3.27;85.42;100893.13;112314;243;160984;-55
2024/02/02 03:35:44;;;;;;;;;4.00;2.25;;;;;3.30;85.41;100891.95;112453;245;38951;-57
2024/02/02 03:38:24;;;;;;;;;2.00;1.00;;;;;3.30;85.33;100891.42;112378;242;160525;-56
2024/02/02 03:41:04;;;;;;;;;1.00;0.75;;;;;3.31;85.21;100895.98;112551;245;39662;-55
2024/02/02 03:43:45;;;;;;;;;3.00;2.00;;;;;3.29;85.16;100899.20;112449;246;39637;-55
2024/02/02 03:46:23;;;;;;;;;2.00;1.25;;;;;3.24;85.31;100898.39;112354;245;159548;-54
2024/02/02 03:49:06;;;;;;;;;2.00;2.00;;;;;3.22;85.28;100907.45;112490;245;40721;-53
2024/02/02 03:51:49;;;;;;;;;1.00;1.00;;;;;3.18;85.24;100918.46;112327;242;159606;-52
2024/02/02 03:54:27;;;;;;;;;2.00;1.00;;;;;3.16;85.25;100919.42;112415;245;39648;-52
2024/02/02 03:57:07;;;;;;;;;1.00;1.00;;;;;3.11;85.26;100918.02;112318;242;159693;-53
2024/02/02 03:59:50;;;;;;;;;1.00;1.00;;;;;3.06;85.38;100923.13;112428;245;41072;-53
2024/02/02 04:02:29;;;;;;;;;2.00;1.00;;;;;2.97;85.40;100926.45;112358;242;160161;-53
2024/02/02 04:05:08;;;;;;;;;2.00;1.00;;;;;2.92;85.35;100927.11;112406;245;40246;-53
2024/02/02 04:07:45;;;;;;;;;2.00;1.00;;;;;2.89;85.35;100924.09;112448;245;39964;-56
2024/02/02 04:10:22;;;;;;;;;1.00;0.25;;;;;2.89;85.43;100921.25;112410;242;160177;-56
2024/02/02 04:13:08;;;;;;;;;1.00;1.00;;;;;2.93;85.45;100922.20;112434;245;39199;-57
2024/02/02 04:15:46;;;;;;;;;0.33;0.00;;;;;2.97;85.53;100927.20;112331;242;160728;-54
2024/02/02 04:18:31;;;;;;;;;1.50;1.00;;;;;2.97;85.56;100925.92;112485;245;39666;-54
2024/02/02 04:21:12;;;;;;;;;0.75;0.00;;;;;2.99;85.57;100925.62;112667;241;160019;-55
2024/02/02 04:23:49;;;;;;;;;2.33;1.00;;;;;3.02;85.56;100926.98;112539;244;40176;-55
2024/02/02 04:26:30;;;;;;;;;2.00;1.00;;;;;3.04;85.59;100929.17;112395;244;159983;-55
2024/02/02 04:29:17;;;;;;;;;0.00;0.00;;;;;3.04;85.51;100929.12;112551;244;39937;-55
2024/02/02 04:31:58;;;;;;;;;3.00;2.00;;;;;3.04;85.55;100933.27;112939;242;39394;-53
2024/02/02 04:34:41;;;;;;;;;1.00;1.00;;;;;3.03;85.56;100927.25;112862;242;39213;-53
2024/02/02 04:37:23;;;;;;;;;2.00;1.00;;;;;3.04;85.38;100928.64;112879;242;39653;-52
2024/02/02 04:40:08;;;;;;;;;3.00;1.00;;;;;3.03;85.30;100934.90;112753;239;159611;-52
2024/02/02 04:42:47;;;;;;;;;1.00;1.00;;;;;3.01;85.36;100933.84;112875;242;39423;-55
2024/02/02 04:45:29;;;;;;;;;0.33;0.00;;;;;2.98;85.37;100935.08;112799;240;159787;-53
2024/02/02 04:48:09;;;;;;;;;1.00;1.00;;;;;2.98;85.34;100939.21;112890;242;39474;-53
2024/02/02 04:50:52;;;;;;;;;1.25;1.00;;;;;2.98;85.30;100944.21;112662;241;160403;-56
2024/02/02 04:53:34;;;;;;;;;2.00;2.00;;;;;3.01;85.31;100947.55;112816;242;39725;-56
2024/02/02 04:56:11;;;;;;;;;0.00;0.00;;;;;3.05;85.42;100949.34;112725;240;160667;-52
2024/02/02 04:58:53;;;;;;;;;1.00;0.00;;;;;3.07;85.34;100949.15;112821;242;39285;-52
2024/02/02 05:01:37;;;;;;;;;3.25;2.00;;;;;3.12;85.27;100951.03;112886;242;41108;-56
2024/02/02 05:04:17;;;;;;;;;0.50;0.00;;;;;3.18;85.23;100956.73;112720;239;160231;-56
2024/02/02 05:06:55;;;;;;;;;2.00;1.00;;;;;3.21;85.16;100953.52;112895;243;39260;-52
2024/02/02 05:09:32;;;;;;;;;1.00;1.00;;;;;3.19;85.19;100955.91;112768;239;159513;-52
2024/02/02 05:12:11;;;;;;;;;1.00;1.00;;;;;3.21;85.20;100950.48;112841;242;39678;-53
2024/02/02 05:14:56;;;;;;;;;2.00;1.00;;;;;3.21;85.12;100953.51;112773;239;159597;-53
2024/02/02 05:17:41;;;;;;;;;1.00;1.00;;;;;3.19;85.04;100954.90;112887;242;39205;-52
2024/02/02 05:20:29;;;;;;;;;1.50;0.50;;;;;3.17;85.04;100954.70;112768;239;159856;-55
2024/02/02 05:23:12;;;;;;;;;1.50;0.00;;;;;3.13;84.86;100952.92;112841;242;40123;-55
2024/02/02 05:25:54;;;;;;;;;1.00;1.00;;;;;3.10;84.92;100953.13;112897;242;39726;-52
2024/02/02 05:28:40;;;;;;;;;2.00;1.00;;;;;3.08;84.95;100952.66;112496;242;41294;-53
2024/02/02 05:31:23;;;;;;;;;2.50;1.00;;;;;3.06;84.97;100953.88;112885;242;39439;-55
2024/02/02 05:34:02;;;;;;;;;1.00;1.00;;;;;3.04;84.95;100955.14;112645;239;160526;-56
2024/02/02 05:36:46;;;;;;;;;1.00;0.00;;;;;3.04;84.93;100952.46;112842;242;39375;-52
2024/02/02 05:39:24;;;;;;;;;0.50;0.25;;;;;3.04;85.20;100953.34;112714;239;161121;-53
2024/02/02 05:42:06;;;;;;;;;2.00;1.25;;;;;3.07;85.16;100952.23;112869;242;39906;-52
2024/02/02 05:44:44;;;;;;;;;3.50;2.00;;;;;3.09;85.07;100958.77;112627;241;160285;-53
2024/02/02 05:47:22;;;;;;;;;1.00;1.00;;;;;3.13;85.04;100966.80;112845;243;39700;-55
2024/02/02 05:50:03;;;;;;;;;1.00;1.00;;;;;3.15;85.06;100962.71;112863;242;40544;-56
2024/02/02 05:52:43;;;;;;;;;1.00;1.00;;;;;3.17;85.07;100962.69;112550;242;39727;-54
2024/02/02 05:55:20;;;;;;;;;1.25;1.00;;;;;3.19;84.96;100968.64;112895;242;40610;-55
2024/02/02 05:57:58;;;;;;;;;2.00;2.00;;;;;3.18;84.92;100973.45;112760;239;159580;-54
2024/02/02 06:00:35;;;;;;;;;1.00;1.00;;;;;3.17;84.81;100977.10;112898;242;39691;-51
2024/02/02 06:03:11;;;;;;;;;7.50;3.00;;;;;3.12;84.85;100981.27;112730;241;159656;-51
2024/02/02 06:05:49;;;;;;;;;1.00;0.00;;;;;3.08;84.86;100988.04;112900;242;41267;-51
2024/02/02 06:08:30;;;;;;;;;0.75;0.50;;;;;3.06;84.84;100990.69;112751;239;161060;-51
2024/02/02 06:11:13;;;;;;;;;1.25;1.00;;;;;3.04;84.85;101001.41;113020;242;39425;-55
2024/02/02 06:13:57;;;;;;;;;3.00;2.00;;;;;3.00;84.76;101002.37;112835;242;40193;-56
2024/02/02 06:16:38;;;;;;;;;1.00;0.00;;;;;2.96;84.74;101005.52;112843;239;159636;-55
2024/02/02 06:19:18;;;;;;;;;3.00;2.00;;;;;2.93;84.88;101013.80;112808;242;39085;-56
2024/02/02 06:21:57;;;;;;;;;1.00;1.00;;;;;2.91;84.95;101010.80;112919;242;160680;-54
2024/02/02 06:24:36;;;;;;;;;0.75;0.00;;;;;2.92;84.92;101010.50;112870;242;40219;-54
2024/02/02 06:27:13;;;;;;;;;1.00;1.00;;;;;2.91;85.00;101011.13;112766;239;160198;-53
2024/02/02 06:29:52;;;;;;;;;2.00;1.00;;;;;2.94;84.98;101011.21;112904;242;40304;-52
2024/02/02 06:32:35;;;;;;;;;1.00;1.00;;;;;2.95;84.97;101012.20;112789;242;160672;-54
2024/02/02 06:35:10;;;;;;;;;1.00;0.50;;;;;2.97;84.99;101011.14;113036;242;40012;-54
2024/02/02 06:37:51;;;;;;;;;1.00;1.00;;;;;3.04;84.84;101011.37;112835;242;39237;-55
2024/02/02 06:40:32;;;;;;;;;3.00;1.50;;;;;3.06;84.83;101009.53;112915;239;159319;-54
2024/02/02 06:43:09;;;;;;;;;1.50;1.00;;;;;3.07;84.91;101008.62;112883;242;40997;-54
2024/02/02 06:45:49;;;;;;;;;4.75;3.00;;;;;3.07;84.86;101006.27;112911;239;160799;-55
2024/02/02 06:48:34;;;;;;;;;2.00;1.25;;;;;3.06;84.86;101006.42;112860;242;38960;-54
2024/02/02 06:51:09;;;;;;;;;2.00;2.00;;;;;3.02;84.57;101007.59;112821;239;160019;-56
2024/02/02 06:53:51;;;;;;;;;1.33;1.00;;;;;2.95;84.68;101012.55;112913;242;39979;-53
2024/02/02 06:56:41;;;;;;;;;1.33;1.00;;;;;2.84;84.49;101013.88;112703;239;159901;-56
2024/02/02 06:59:21;;;;;;;;;3.00;2.00;;;;;2.78;84.52;101014.32;112901;242;40526;-56
2024/02/02 07:02:00;;;;;;;;;1.00;1.00;;;;;2.79;84.56;101010.56;112802;242;39842;-53
2024/02/02 07:04:35;;;;;;;;;4.50;3.00;;;;;2.87;84.83;101014.86;112902;239;161152;-52
2024/02/02 07:07:16;;;;;;;;;1.00;1.00;;;;;2.94;84.90;101014.07;112848;242;40113;-53
2024/02/02 07:09:58;;;;;;;;;2.33;2.00;;;;;3.30;84.95;101012.52;112763;239;160554;-52
2024/02/02 07:13:14;;;;;;;;;1.00;1.00;;;;;4.11;85.01;101023.13;112914;242;41044;-55
2024/02/02 07:15:53;;;;;;;;;4.00;2.00;;;;;5.04;84.67;101016.93;112776;239;160463;-53
2024/02/02 07:18:42;;;;;;;;;5.75;3.00;;;;;5.85;84.21;101018.20;112879;242;39879;-54
2024/02/02 07:21:26;;;;;;;;;4.75;3.00;;;;;6.48;83.36;101014.95;112796;241;159390;-54
2024/02/02 07:24:05;;;;;;;;;6.00;4.00;;;;;6.82;82.33;101011.77;112827;242;39924;-55
2024/02/02 07:26:48;;;;;;;;;3.00;2.00;;;;;7.16;82.04;101011.25;112792;239;160287;-59
2024/02/02 07:29:42;;;;;;;;;3.75;3.00;;;;;7.34;81.28;101017.20;112856;242;40734;-57
2024/02/02 07:32:26;;;;;;;;;2.00;2.00;;;;;7.02;80.07;101015.52;112782;240;160303;-51
2024/02/02 07:35:16;;;;;;;;;3.00;2.00;;;;;7.02;79.74;101013.89;112916;242;40002;-51
2024/02/02 07:38:04;;;;;;;;;6.25;3.75;;;;;7.37;79.70;101013.60;112834;242;39159;-54
2024/02/02 07:41:08;;;;;;;;;6.00;4.00;;;;;8.00;79.67;101014.48;112786;242;39857;-53
2024/02/02 07:43:49;;;;;;;;;6.00;4.00;;;;;8.58;78.64;101018.45;112851;243;41710;-53
2024/02/02 07:46:34;;;;;;;;;3.00;3.00;;;;;9.05;77.27;101019.67;113247;240;160323;-50
2024/02/02 07:49:17;;;;;;;;;6.00;4.00;;;;;9.76;77.92;101014.49;112872;243;39539;-51
2024/02/02 07:51:52;;;;;;;;;3.00;3.00;;;;;10.28;77.13;101014.92;112885;243;39547;-51
2024/02/02 07:54:34;;;;;;;;;4.00;3.00;;;;;10.52;76.66;101015.70;112873;243;39344;-51
2024/02/02 07:57:10;;;;;;;;;4.00;3.00;;;;;10.39;75.08;101020.63;112835;240;160687;-51
2024/02/02 07:59:51;;;;;;;;;3.50;3.00;;;;;10.75;73.79;101021.75;113160;243;40536;-51
2024/02/02 08:02:29;;;;;;;;;7.00;4.67;;;;;11.19;72.62;101020.67;112731;240;160762;-52
2024/02/02 08:05:09;;;;;;;;;5.00;4.00;;;;;11.26;71.43;101022.64;113224;243;40146;-52
2024/02/02 08:07:51;;;;;;;;;6.75;4.00;;;;;11.45;71.39;101021.66;112869;243;39341;-56
2024/02/02 08:10:30;;;;;;;;;6.00;4.00;;;;;12.41;69.47;101025.78;112934;243;39330;-54
2024/02/02 08:13:06;;;;;;;;;4.00;3.00;;;;;12.70;67.96;101024.83;112623;243;40771;-53
2024/02/02 08:15:44;;;;;;;;;7.00;5.00;;;;;12.45;67.77;101027.10;113070;240;160329;-56
2024/02/02 08:18:27;;;;;;;;;2.50;2.00;;;;;11.96;67.19;101030.66;113026;243;39547;-57
2024/02/02 08:21:13;;;;;;;;;3.50;2.00;;;;;12.29;66.93;101025.90;112874;243;39294;-53
2024/02/02 08:23:52;;;;;;;;;5.50;3.50;;;;;12.44;66.20;101029.17;112805;243;39572;-54
2024/02/02 08:26:33;;;;;;;;;5.00;4.00;;;;;12.68;64.80;101027.50;112848;243;39840;-53
2024/02/02 08:29:16;;;;;;;;;4.67;3.67;;;;;12.28;63.69;101022.30;112455;243;39626;-52
2024/02/02 08:31:58;;;;;;;;;5.75;4.50;;;;;11.84;64.09;101020.77;112487;243;41042;-52
2024/02/02 08:34:39;;;;;;;;;4.00;3.00;;;;;11.27;63.04;101016.04;113091;240;160395;-52
2024/02/02 08:37:22;;;;;;;;;6.00;4.00;;;;;10.61;62.99;101017.18;112844;243;39497;-53
2024/02/02 08:40:02;;;;;;;;;4.00;3.00;;;;;9.93;63.66;101021.89;113096;240;160392;-53
2024/02/02 08:42:42;;;;;;;;;5.75;2.75;;;;;9.35;64.34;101026.79;112968;243;39641;-55
2024/02/02 08:46:03;;;;;;;;;7.75;4.00;;;;;9.12;64.06;101027.91;112886;240;161640;-54
2024/02/02 08:48:48;;;;;;;;;6.50;4.00;;;;;8.83;64.48;101028.34;112993;243;39983;-54
2024/02/02 08:51:51;;;;;;;;;10.00;7.00;;;;;8.57;64.54;101025.38;112909;243;160330;-55
2024/02/02 08:54:45;;;;;;;;;8.00;5.00;;;;;8.53;65.42;101024.42;113006;243;39478;-55
2024/02/02 08:58:09;;;;;;;;;4.25;3.00;;;;;9.19;65.74;101022.27;112917;240;160219;-57
2024/02/02 09:00:52;;;;;;;;;7.00;5.75;;;;;9.81;65.44;101019.91;112828;243;40930;-53
2024/02/02 09:03:43;;;;;;;;;5.00;2.00;;;;;10.14;65.10;101020.23;112844;240;160348;-52
2024/02/02 09:06:46;;;;;;;;;3.00;3.00;;;;;10.66;63.86;101022.43;112962;243;40029;-55
2024/02/02 09:09:25;;;;;;;;;4.00;3.00;;;;;10.25;62.97;101029.77;112816;240;161554;-53
2024/02/02 09:11:59;;;;;;;;;6.75;4.75;;;;;9.76;61.44;101033.83;112996;243;40601;-54
2024/02/02 09:14:37;;;;;;;;;3.00;2.00;;;;;9.16;62.21;101039.55;112874;243;40228;-54
2024/02/02 09:17:20;;;;;;;;;5.75;4.00;;;;;9.13;62.96;101039.45;112608;243;39789;-55
2024/02/02 09:19:58;;;;;;;;;5.67;3.00;;;;;9.23;63.44;101035.48;112823;243;40123;-55
2024/02/02 09:22:36;;;;;;;;;3.00;2.00;;;;;9.62;64.26;101039.83;112373;242;161499;-53
2024/02/02 09:25:26;;;;;;;;;5.50;4.00;;;;;10.39;64.06;101039.92;112843;243;41245;-55
2024/02/02 09:28:08;;;;;;;;;5.25;3.00;;;;;10.56;62.58;101044.77;112754;243;161414;-53
2024/02/02 09:30:42;;;;;;;;;5.00;3.00;;;;;10.78;62.85;101042.23;112930;243;39575;-57
2024/02/02 09:33:49;;;;;;;;;5.00;3.00;;;;;10.86;62.12;101034.89;112779;240;160600;-57
2024/02/02 09:36:28;;;;;;;;;7.50;5.25;;;;;10.88;61.08;101040.75;112938;243;39673;-56
2024/02/02 09:39:47;;;;;;;;;5.00;4.00;;;;;10.46;61.69;101046.67;112774;240;160597;-57
2024/02/02 09:42:46;;;;;;;;;2.67;1.00;;;;;10.79;61.45;101036.80;112944;243;39768;-55
2024/02/02 09:45:42;;;;;;;;;5.00;3.00;;;;;10.91;61.61;101039.48;112789;240;160443;-56
2024/02/02 09:48:46;;;;;;;;;5.50;4.50;;;;;10.82;61.22;101039.76;112911;243;39232;-57
2024/02/02 09:51:35;;;;;;;;;6.50;4.50;;;;;11.15;61.85;101043.66;112815;240;160622;-57
2024/02/02 09:54:38;;;;;;;;;8.00;6.00;;;;;11.22;61.20;101038.40;112919;243;39399;-57
2024/02/02 09:57:37;;;;;;;;;7.00;6.00;;;;;10.83;60.91;101042.01;112818;240;160666;-57
2024/02/02 10:00:28;;;;;;;;;5.00;3.50;;;;;10.53;60.60;101038.81;112989;243;40215;-54
2024/02/02 10:03:22;;;;;;;;;6.00;5.00;;;;;10.24;61.03;101040.94;112766;240;161997;-53
2024/02/02 10:06:16;;;;;;;;;9.00;6.00;;;;;9.97;60.82;101042.20;113071;243;39178;-52
2024/02/02 10:09:14;;;;;;;;;9.00;6.00;;;;;9.98;61.24;101035.85;112814;243;40517;-52
2024/02/02 10:12:18;;;;;;;;;5.00;4.00;;;;;9.98;61.34;101036.05;112825;243;39250;-56
2024/02/02 10:15:35;;;;;;;;;4.33;3.00;;;;;9.99;61.22;101036.59;112383;240;160814;-57
2024/02/02 10:18:45;;;;;;;;;5.00;3.00;;;;;9.92;61.34;101034.38;113008;243;39495;-52
2024/02/02 10:21:30;;;;;;;;;4.00;3.00;;;;;9.78;61.86;101031.10;112413;243;161674;-54
2024/02/02 10:24:35;;;;;;;;;6.75;4.75;;;;;9.64;62.21;101024.17;113033;243;41262;-53
2024/02/02 10:27:46;;;;;;;;;5.00;4.00;;;;;9.57;62.49;101023.88;112828;243;39217;-52
2024/02/02 10:30:40;;;;;;;;;3.75;3.00;;;;;9.34;63.01;101025.34;112864;243;39676;-53
2024/02/02 10:33:41;;;;;;;;;4.00;3.00;;;;;9.11;63.31;101033.40;112786;240;160577;-55
2024/02/02 10:36:32;;;;;;;;;3.00;2.00;;;;;9.03;63.42;101030.48;112947;243;39678;-54
2024/02/02 10:39:25;;;;;;;;;4.00;4.00;;;;;8.98;63.54;101032.72;112401;240;160543;-53
2024/02/02 10:42:26;;;;;;;;;3.50;3.00;;;;;8.86;63.68;101031.23;113167;243;40107;-55
2024/02/02 10:45:20;;;;;;;;;3.00;2.00;;;;;8.72;64.17;101031.88;112815;240;160687;-57
2024/02/02 10:48:21;;;;;;;;;6.00;3.00;;;;;8.60;64.44;101024.69;112985;243;39434;-53
2024/02/02 10:51:09;;;;;;;;;9.25;7.00;;;;;8.48;64.56;101025.98;112725;240;160623;-52
2024/02/02 10:54:02;;;;;;;;;6.00;4.00;;;;;8.32;64.83;101017.65;113031;243;39351;-52
2024/02/02 10:57:00;;;;;;;;;4.25;3.00;;;;;8.07;65.02;101013.09;112812;243;39697;-54
2024/02/02 10:59:51;;;;;;;;;6.00;4.00;;;;;8.06;65.26;101015.80;112538;243;38896;-55
2024/02/02 11:02:37;;;;;;;;;6.75;5.00;;;;;7.87;64.78;101014.27;112881;243;39633;-53
2024/02/02 11:05:26;;;;;;;;;9.00;7.00;;;;;7.76;65.02;101011.99;112946;240;160081;-56
2024/02/02 11:08:09;;;;;;;;;5.00;3.00;;;;;7.64;65.43;101014.05;112852;243;40238;-56
2024/02/02 11:10:57;;;;;;;;;5.75;4.00;;;;;7.64;65.67;101011.37;113100;240;160180;-53
2024/02/02 11:13:45;;;;;;;;;4.00;2.00;;;;;7.65;65.83;101015.23;112856;243;40232;-53
2024/02/02 11:16:49;;;;;;;;;5.00;4.00;;;;;7.67;65.87;101010.54;113054;240;161145;-54
2024/02/02 11:19:51;;;;;;;;;5.75;4.00;;;;;7.74;66.12;101009.31;112901;243;40303;-56
2024/02/02 11:22:37;;;;;;;;;5.67;4.00;;;;;7.80;66.05;101004.45;113086;240;161191;-53
2024/02/02 11:25:23;;;;;;;;;6.00;5.00;;;;;7.69;66.44;101000.51;112856;243;40140;-55
2024/02/02 11:28:05;;;;;;;;;6.00;4.00;;;;;7.68;66.64;100998.98;112953;240;161150;-53
2024/02/02 11:31:08;;;;;;;;;5.75;3.50;;;;;7.73;66.84;100995.40;113015;243;38898;-54
2024/02/02 11:34:01;;;;;;;;;6.00;5.00;;;;;7.72;67.11;100997.61;112859;240;160616;-53
2024/02/02 11:37:02;;;;;;;;;3.75;2.75;;;;;7.81;67.34;100991.38;113020;243;40720;-58
2024/02/02 11:39:56;;;;;;;;;3.00;2.00;;;;;7.89;67.58;100991.50;112934;240;160474;-57
2024/02/02 11:42:41;;;;;;;;;2.67;2.00;;;;;7.93;67.61;100987.30;113045;243;40356;-57
2024/02/02 11:45:40;;;;;;;;;8.00;5.00;;;;;8.02;67.61;100986.98;112837;240;160341;-54
2024/02/02 11:48:27;;;;;;;;;5.50;4.00;;;;;8.07;67.54;100990.27;113120;243;39091;-53
2024/02/02 11:51:07;;;;;;;;;5.00;4.00;;;;;8.04;67.61;100984.10;112776;240;160141;-57
2024/02/02 11:53:49;;;;;;;;;8.00;5.00;;;;;7.96;67.63;100981.89;113282;243;39724;-55
2024/02/02 11:56:34;;;;;;;;;6.25;4.00;;;;;7.94;67.47;100977.29;112864;243;40802;-53
2024/02/02 11:59:17;;;;;;;;;4.00;3.00;;;;;7.91;67.37;100976.47;113202;240;159898;-53
2024/02/02 12:02:17;;;;;;;;;4.75;4.00;;;;;7.72;67.28;100979.69;112876;243;39742;-56
2024/02/02 12:05:01;;;;;;;;;7.00;6.00;;;;;7.68;67.45;100974.92;113147;240;160449;-56
2024/02/02 12:07:52;;;;;;;;;8.00;5.00;;;;;7.64;67.47;100969.75;112766;243;39850;-54
2024/02/02 12:10:40;;;;;;;;;6.00;4.00;;;;;7.60;67.59;100972.61;112968;240;160079;-54
2024/02/02 12:13:31;;;;;;;;;3.00;2.50;;;;;7.58;67.87;100970.63;112934;243;40607;-53
2024/02/02 12:16:09;;;;;;;;;4.25;3.00;;;;;7.53;68.02;100964.33;112894;240;159966;-56
2024/02/02 12:18:50;;;;;;;;;3.50;2.50;;;;;7.48;68.34;100959.80;112930;243;41411;-56
2024/02/02 12:21:38;;;;;;;;;4.00;4.00;;;;;7.50;68.43;100954.35;112819;240;160014;-53
2024/02/02 12:24:24;;;;;;;;;8.00;6.50;;;;;7.53;68.52;100951.19;113095;243;40949;-54
2024/02/02 12:27:01;;;;;;;;;4.50;4.00;;;;;7.57;68.43;100952.38;112743;240;160149;-57
2024/02/02 12:29:39;;;;;;;;;6.50;5.00;;;;;7.53;68.46;100945.10;113284;243;40336;-57
2024/02/02 12:32:22;;;;;;;;;6.25;5.00;;;;;7.48;68.54;100942.46;112917;243;39863;-55
2024/02/02 12:35:08;;;;;;;;;7.00;6.00;;;;;7.33;68.85;100940.80;113065;240;159823;-55
2024/02/02 12:37:55;;;;;;;;;7.00;6.00;;;;;7.30;68.98;100930.99;112891;243;40083;-52
2024/02/02 12:40:35;;;;;;;;;5.00;3.75;;;;;7.27;69.07;100925.05;113120;240;160133;-56
2024/02/02 12:43:23;;;;;;;;;8.50;6.25;;;;;7.31;69.07;100924.34;112981;243;39779;-57
2024/02/02 12:46:03;;;;;;;;;9.00;6.00;;;;;7.27;69.26;100920.76;112954;240;159901;-53
2024/02/02 12:48:38;;;;;;;;;8.75;6.00;;;;;7.15;69.64;100917.33;113088;243;38999;-53
2024/02/02 12:51:19;;;;;;;;;9.00;7.25;;;;;7.10;69.73;100922.71;112779;240;160146;-53